sensor_id;sensor_type;location;lat;lon;timestamp;pressure;altitude;pressure_sealevel;temperature;humidity
56456;BME280;42354;53.218;6.564;2022-12-19T00:01:22;47016.00;;;-142.92;77.94
56456;BME280;42354;53.218;6.564;2022-12-19T00:03:55;47003.69;;;-142.92;78.50
56456;BME280;42354;53.218;6.564;2022-12-19T00:06:21;47013.97;;;-142.92;78.21
56456;BME280;42354;53.218;6.564;2022-12-19T00:08:50;46979.06;;;-142.92;78.57
56456;BME280;42354;53.218;6.564;2022-12-19T00:11:18;47020.13;;;-142.92;78.72
56456;BME280;42354;53.218;6.564;2022-12-19T00:13:44;46989.34;;;-142.92;78.79
56456;BME280;42354;53.218;6.564;2022-12-19T00:16:12;46991.38;;;-142.92;78.62
56456;BME280;42354;53.218;6.564;2022-12-19T00:18:39;46993.44;;;-142.92;79.01
56456;BME280;42354;53.218;6.564;2022-12-19T00:21:04;46993.44;;;-142.92;79.07
56456;BME280;42354;53.218;6.564;2022-12-19T00:23:32;47005.75;;;-142.92;79.35
56456;BME280;42354;53.218;6.564;2022-12-19T00:26:16;47003.69;;;-142.92;79.70
56456;BME280;42354;53.218;6.564;2022-12-19T00:28:44;47005.75;;;-142.92;79.72
56456;BME280;42354;53.218;6.564;2022-12-19T00:31:10;47011.91;;;-142.92;79.88
56456;BME280;42354;53.218;6.564;2022-12-19T00:33:35;47009.84;;;-142.92;80.10
56456;BME280;42354;53.218;6.564;2022-12-19T00:36:03;47013.97;;;-142.92;80.30
56456;BME280;42354;53.218;6.564;2022-12-19T00:38:29;47003.69;;;-142.92;80.17
56456;BME280;42354;53.218;6.564;2022-12-19T00:40:54;47001.66;;;-142.92;80.69
56456;BME280;42354;53.218;6.564;2022-12-19T00:43:20;47016.00;;;-142.92;80.59
56456;BME280;42354;53.218;6.564;2022-12-19T00:45:45;47013.97;;;-142.92;80.63
56456;BME280;42354;53.218;6.564;2022-12-19T00:48:11;47007.81;;;-142.92;80.74
56456;BME280;42354;53.218;6.564;2022-12-19T00:50:39;47003.69;;;-142.92;80.71
56456;BME280;42354;53.218;6.564;2022-12-19T00:53:05;46991.38;;;-142.92;80.67
56456;BME280;42354;53.218;6.564;2022-12-19T00:55:30;47001.66;;;-142.92;81.03
56456;BME280;42354;53.218;6.564;2022-12-19T00:57:56;46995.50;;;-142.92;81.25
56456;BME280;42354;53.218;6.564;2022-12-19T01:00:21;46987.28;;;-142.92;81.32
56456;BME280;42354;53.218;6.564;2022-12-19T01:02:46;47020.13;;;-142.92;81.39
56456;BME280;42354;53.218;6.564;2022-12-19T01:05:12;47005.75;;;-142.92;81.57
56456;BME280;42354;53.218;6.564;2022-12-19T01:07:37;46983.19;;;-142.92;81.67
56456;BME280;42354;53.218;6.564;2022-12-19T01:10:03;47032.44;;;-142.92;81.86
56456;BME280;42354;53.218;6.564;2022-12-19T01:12:28;46989.34;;;-142.92;81.85
56456;BME280;42354;53.218;6.564;2022-12-19T01:15:18;46993.44;;;-142.92;82.04
56456;BME280;42354;53.218;6.564;2022-12-19T01:17:45;47011.91;;;-142.92;82.19
56456;BME280;42354;53.218;6.564;2022-12-19T01:20:15;47022.16;;;-142.92;82.13
56456;BME280;42354;53.218;6.564;2022-12-19T01:22:42;47007.81;;;-142.92;82.17
56456;BME280;42354;53.218;6.564;2022-12-19T01:25:08;46987.28;;;-142.92;82.03
56456;BME280;42354;53.218;6.564;2022-12-19T01:27:33;46999.59;;;-142.92;82.15
56456;BME280;42354;53.218;6.564;2022-12-19T01:29:58;47020.13;;;-142.92;82.11
56456;BME280;42354;53.218;6.564;2022-12-19T01:32:24;47003.69;;;-142.92;82.43
56456;BME280;42354;53.218;6.564;2022-12-19T01:34:49;47016.00;;;-142.92;82.17
56456;BME280;42354;53.218;6.564;2022-12-19T01:37:14;47013.97;;;-142.92;82.16
56456;BME280;42354;53.218;6.564;2022-12-19T01:39:41;47007.81;;;-142.92;82.21
56456;BME280;42354;53.218;6.564;2022-12-19T01:42:18;47018.06;;;-142.92;82.28
56456;BME280;42354;53.218;6.564;2022-12-19T01:47:40;46989.34;;;-142.92;82.23
56456;BME280;42354;53.218;6.564;2022-12-19T01:50:16;47024.22;;;-142.92;82.44
56456;BME280;42354;53.218;6.564;2022-12-19T01:52:42;46999.59;;;-142.92;82.75
56456;BME280;42354;53.218;6.564;2022-12-19T01:55:09;46995.50;;;-142.92;82.55
56456;BME280;42354;53.218;6.564;2022-12-19T01:57:36;47001.66;;;-142.92;82.66
56456;BME280;42354;53.218;6.564;2022-12-19T02:00:03;46987.28;;;-142.92;82.34
56456;BME280;42354;53.218;6.564;2022-12-19T02:02:36;46987.28;;;-142.92;82.30
56456;BME280;42354;53.218;6.564;2022-12-19T02:05:03;47018.06;;;-142.92;82.59
56456;BME280;42354;53.218;6.564;2022-12-19T02:07:29;46995.50;;;-142.92;82.36
56456;BME280;42354;53.218;6.564;2022-12-19T02:09:56;47007.81;;;-142.92;82.52
56456;BME280;42354;53.218;6.564;2022-12-19T02:12:25;47007.81;;;-142.92;82.46
56456;BME280;42354;53.218;6.564;2022-12-19T02:14:54;47011.91;;;-142.92;82.39
56456;BME280;42354;53.218;6.564;2022-12-19T02:25:29;46999.59;;;-142.92;83.85
56456;BME280;42354;53.218;6.564;2022-12-19T02:33:51;47020.13;;;-142.92;84.80
56456;BME280;42354;53.218;6.564;2022-12-19T02:36:47;46987.28;;;-142.92;84.97
56456;BME280;42354;53.218;6.564;2022-12-19T02:39:30;46999.59;;;-142.92;85.53
56456;BME280;42354;53.218;6.564;2022-12-19T02:41:57;47034.47;;;-142.92;85.85
56456;BME280;42354;53.218;6.564;2022-12-19T02:44:28;46983.19;;;-142.92;85.75
56456;BME280;42354;53.218;6.564;2022-12-19T02:46:56;47003.69;;;-142.92;86.09
56456;BME280;42354;53.218;6.564;2022-12-19T02:49:22;47003.69;;;-142.92;86.42
56456;BME280;42354;53.218;6.564;2022-12-19T02:51:47;47018.06;;;-142.92;86.72
56456;BME280;42354;53.218;6.564;2022-12-19T02:54:13;46999.59;;;-142.92;86.92
56456;BME280;42354;53.218;6.564;2022-12-19T02:56:54;46991.38;;;-142.92;87.34
56456;BME280;42354;53.218;6.564;2022-12-19T03:07:36;47022.16;;;-142.92;87.87
56456;BME280;42354;53.218;6.564;2022-12-19T03:12:45;47005.75;;;-142.92;88.60
56456;BME280;42354;53.218;6.564;2022-12-19T03:15:13;47018.06;;;-142.92;88.55
56456;BME280;42354;53.218;6.564;2022-12-19T03:17:39;47013.97;;;-142.92;88.75
56456;BME280;42354;53.218;6.564;2022-12-19T03:20:24;47020.13;;;-142.92;88.76
56456;BME280;42354;53.218;6.564;2022-12-19T03:22:51;47005.75;;;-142.92;89.10
56456;BME280;42354;53.218;6.564;2022-12-19T03:25:18;47007.81;;;-142.92;89.28
56456;BME280;42354;53.218;6.564;2022-12-19T03:27:45;47020.13;;;-142.92;89.56
56456;BME280;42354;53.218;6.564;2022-12-19T03:30:13;47003.69;;;-142.92;89.82
56456;BME280;42354;53.218;6.564;2022-12-19T03:32:41;47005.75;;;-142.92;90.13
56456;BME280;42354;53.218;6.564;2022-12-19T03:35:21;46983.19;;;-142.92;90.23
56456;BME280;42354;53.218;6.564;2022-12-19T03:37:49;47026.28;;;-142.92;90.54
56456;BME280;42354;53.218;6.564;2022-12-19T03:40:20;47020.13;;;-142.92;90.47
56456;BME280;42354;53.218;6.564;2022-12-19T03:42:47;47007.81;;;-142.92;90.64
56456;BME280;42354;53.218;6.564;2022-12-19T03:48:39;47020.13;;;-142.92;91.08
56456;BME280;42354;53.218;6.564;2022-12-19T03:56:34;47024.22;;;-142.92;91.28
56456;BME280;42354;53.218;6.564;2022-12-19T03:59:08;47007.81;;;-142.92;91.71
56456;BME280;42354;53.218;6.564;2022-12-19T04:01:38;47003.69;;;-142.92;91.65
56456;BME280;42354;53.218;6.564;2022-12-19T04:04:04;47005.75;;;-142.92;91.76
56456;BME280;42354;53.218;6.564;2022-12-19T04:06:32;47007.81;;;-142.92;92.12
56456;BME280;42354;53.218;6.564;2022-12-19T04:08:59;46999.59;;;-142.92;92.42
56456;BME280;42354;53.218;6.564;2022-12-19T04:11:26;47028.31;;;-142.92;92.39
56456;BME280;42354;53.218;6.564;2022-12-19T04:14:01;47009.84;;;-142.92;92.23
56456;BME280;42354;53.218;6.564;2022-12-19T04:19:10;46993.44;;;-142.92;92.49
56456;BME280;42354;53.218;6.564;2022-12-19T04:21:54;46995.50;;;-142.92;92.46
56456;BME280;42354;53.218;6.564;2022-12-19T04:24:26;46995.50;;;-142.92;92.60
56456;BME280;42354;53.218;6.564;2022-12-19T04:26:54;47011.91;;;-142.92;92.74
56456;BME280;42354;53.218;6.564;2022-12-19T04:29:23;47007.81;;;-142.92;92.70
56456;BME280;42354;53.218;6.564;2022-12-19T04:31:51;47013.97;;;-142.92;92.75
56456;BME280;42354;53.218;6.564;2022-12-19T04:34:19;47003.69;;;-142.92;92.87
56456;BME280;42354;53.218;6.564;2022-12-19T04:36:45;47036.53;;;-142.92;92.84
56456;BME280;42354;53.218;6.564;2022-12-19T04:39:10;47001.66;;;-142.92;92.77
56456;BME280;42354;53.218;6.564;2022-12-19T04:41:36;47009.84;;;-142.92;92.95
56456;BME280;42354;53.218;6.564;2022-12-19T04:44:01;46989.34;;;-142.92;93.00
56456;BME280;42354;53.218;6.564;2022-12-19T04:46:26;47007.81;;;-142.92;93.02
56456;BME280;42354;53.218;6.564;2022-12-19T04:48:52;47024.22;;;-142.92;92.79
56456;BME280;42354;53.218;6.564;2022-12-19T04:51:17;46997.53;;;-142.92;93.03
56456;BME280;42354;53.218;6.564;2022-12-19T04:53:42;46997.53;;;-142.92;92.97
56456;BME280;42354;53.218;6.564;2022-12-19T04:56:08;47003.69;;;-142.92;92.96
56456;BME280;42354;53.218;6.564;2022-12-19T04:58:33;46997.53;;;-142.92;92.95
56456;BME280;42354;53.218;6.564;2022-12-19T05:01:03;46993.44;;;-142.92;92.85
56456;BME280;42354;53.218;6.564;2022-12-19T05:03:29;47013.97;;;-142.92;92.78
56456;BME280;42354;53.218;6.564;2022-12-19T05:06:12;47011.91;;;-142.92;93.07
56456;BME280;42354;53.218;6.564;2022-12-19T05:08:39;46999.59;;;-142.92;93.12
56456;BME280;42354;53.218;6.564;2022-12-19T05:11:07;46995.50;;;-142.92;93.13
56456;BME280;42354;53.218;6.564;2022-12-19T05:13:33;47005.75;;;-142.92;93.23
56456;BME280;42354;53.218;6.564;2022-12-19T05:16:01;47011.91;;;-142.92;93.25
56456;BME280;42354;53.218;6.564;2022-12-19T05:18:27;47009.84;;;-142.92;93.29
56456;BME280;42354;53.218;6.564;2022-12-19T05:20:53;47011.91;;;-142.92;93.24
56456;BME280;42354;53.218;6.564;2022-12-19T05:23:18;46995.50;;;-142.92;93.34
56456;BME280;42354;53.218;6.564;2022-12-19T05:25:44;46999.59;;;-142.92;93.42
56456;BME280;42354;53.218;6.564;2022-12-19T05:28:09;47026.28;;;-142.92;93.51
56456;BME280;42354;53.218;6.564;2022-12-19T05:30:34;47003.69;;;-142.92;93.45
56456;BME280;42354;53.218;6.564;2022-12-19T05:33:00;47011.91;;;-142.92;93.58
56456;BME280;42354;53.218;6.564;2022-12-19T05:35:26;47016.00;;;-142.92;93.61
56456;BME280;42354;53.218;6.564;2022-12-19T05:37:51;46983.19;;;-142.92;93.77
56456;BME280;42354;53.218;6.564;2022-12-19T05:40:16;47005.75;;;-142.92;93.79
56456;BME280;42354;53.218;6.564;2022-12-19T05:42:42;46995.50;;;-142.92;93.70
56456;BME280;42354;53.218;6.564;2022-12-19T05:45:07;46991.38;;;-142.92;93.84
56456;BME280;42354;53.218;6.564;2022-12-19T05:47:33;46983.19;;;-142.92;94.07
56456;BME280;42354;53.218;6.564;2022-12-19T05:49:58;46997.53;;;-142.92;94.04
56456;BME280;42354;53.218;6.564;2022-12-19T05:52:24;47007.81;;;-142.92;94.15
56456;BME280;42354;53.218;6.564;2022-12-19T05:54:49;47005.75;;;-142.92;94.48
56456;BME280;42354;53.218;6.564;2022-12-19T05:57:14;47013.97;;;-142.92;94.37
56456;BME280;42354;53.218;6.564;2022-12-19T05:59:40;47003.69;;;-142.92;94.66
56456;BME280;42354;53.218;6.564;2022-12-19T06:02:06;47026.28;;;-142.92;94.61
56456;BME280;42354;53.218;6.564;2022-12-19T06:04:31;47003.69;;;-142.92;94.55
56456;BME280;42354;53.218;6.564;2022-12-19T06:06:56;47018.06;;;-142.92;94.57
56456;BME280;42354;53.218;6.564;2022-12-19T06:09:22;47007.81;;;-142.92;94.74
56456;BME280;42354;53.218;6.564;2022-12-19T06:11:47;46997.53;;;-142.92;94.58
56456;BME280;42354;53.218;6.564;2022-12-19T06:14:12;47001.66;;;-142.92;94.75
56456;BME280;42354;53.218;6.564;2022-12-19T06:16:38;47005.75;;;-142.92;94.89
56456;BME280;42354;53.218;6.564;2022-12-19T06:19:03;47016.00;;;-142.92;94.95
56456;BME280;42354;53.218;6.564;2022-12-19T06:21:28;47013.97;;;-142.92;94.92
56456;BME280;42354;53.218;6.564;2022-12-19T06:23:54;47011.91;;;-142.92;94.82
56456;BME280;42354;53.218;6.564;2022-12-19T06:26:20;47011.91;;;-142.92;95.07
56456;BME280;42354;53.218;6.564;2022-12-19T06:28:49;47007.81;;;-142.92;94.81
56456;BME280;42354;53.218;6.564;2022-12-19T06:31:16;46995.50;;;-142.92;95.05
56456;BME280;42354;53.218;6.564;2022-12-19T06:33:42;47009.84;;;-142.92;95.05
56456;BME280;42354;53.218;6.564;2022-12-19T06:36:14;47013.97;;;-142.92;95.00
56456;BME280;42354;53.218;6.564;2022-12-19T06:38:40;46989.34;;;-142.92;95.20
56456;BME280;42354;53.218;6.564;2022-12-19T06:41:08;46991.38;;;-142.92;95.21
56456;BME280;42354;53.218;6.564;2022-12-19T06:43:52;47020.13;;;-142.92;95.19
56456;BME280;42354;53.218;6.564;2022-12-19T06:46:17;47032.44;;;-142.92;95.50
56456;BME280;42354;53.218;6.564;2022-12-19T06:48:43;46942.13;;;-142.92;95.56
56456;BME280;42354;53.218;6.564;2022-12-19T06:51:08;47011.91;;;-142.92;95.45
56456;BME280;42354;53.218;6.564;2022-12-19T06:53:33;47011.91;;;-142.92;95.57
56456;BME280;42354;53.218;6.564;2022-12-19T06:55:59;47022.16;;;-142.92;95.53
56456;BME280;42354;53.218;6.564;2022-12-19T06:58:25;47036.53;;;-142.92;95.60
56456;BME280;42354;53.218;6.564;2022-12-19T07:00:51;47024.22;;;-142.92;95.62
56456;BME280;42354;53.218;6.564;2022-12-19T07:03:29;47016.00;;;-142.92;95.58
56456;BME280;42354;53.218;6.564;2022-12-19T07:05:55;47032.44;;;-142.92;95.79
56456;BME280;42354;53.218;6.564;2022-12-19T07:08:20;47034.47;;;-142.92;95.82
56456;BME280;42354;53.218;6.564;2022-12-19T07:10:46;47055.00;;;-142.92;95.95
56456;BME280;42354;53.218;6.564;2022-12-19T07:13:12;47048.84;;;-142.92;95.77
56456;BME280;42354;53.218;6.564;2022-12-19T07:15:37;47048.84;;;-142.92;95.82
56456;BME280;42354;53.218;6.564;2022-12-19T07:18:06;47036.53;;;-142.92;95.69
56456;BME280;42354;53.218;6.564;2022-12-19T07:20:33;47055.00;;;-142.92;95.79
56456;BME280;42354;53.218;6.564;2022-12-19T07:23:00;47044.75;;;-142.92;95.72
56456;BME280;42354;53.218;6.564;2022-12-19T07:25:27;47065.25;;;-142.92;95.62
56456;BME280;42354;53.218;6.564;2022-12-19T07:27:52;47030.38;;;-142.92;95.65
56456;BME280;42354;53.218;6.564;2022-12-19T07:30:17;47061.16;;;-142.92;95.57
56456;BME280;42354;53.218;6.564;2022-12-19T07:32:43;47052.94;;;-142.92;95.76
56456;BME280;42354;53.218;6.564;2022-12-19T07:35:08;47048.84;;;-142.92;95.67
56456;BME280;42354;53.218;6.564;2022-12-19T07:37:34;47042.69;;;-142.92;95.89
56456;BME280;42354;53.218;6.564;2022-12-19T07:39:59;47055.00;;;-142.92;95.84
56456;BME280;42354;53.218;6.564;2022-12-19T07:42:25;47075.53;;;-142.92;95.98
56456;BME280;42354;53.218;6.564;2022-12-19T07:44:51;47057.06;;;-142.92;95.83
56456;BME280;42354;53.218;6.564;2022-12-19T07:47:16;47065.25;;;-142.92;96.17
56456;BME280;42354;53.218;6.564;2022-12-19T07:49:41;47081.69;;;-142.92;96.08
56456;BME280;42354;53.218;6.564;2022-12-19T07:52:07;47057.06;;;-142.92;96.16
56456;BME280;42354;53.218;6.564;2022-12-19T07:54:32;47065.25;;;-142.92;96.08
56456;BME280;42354;53.218;6.564;2022-12-19T07:57:00;47085.78;;;-142.92;96.29
56456;BME280;42354;53.218;6.564;2022-12-19T07:59:25;47071.41;;;-142.92;96.19
56456;BME280;42354;53.218;6.564;2022-12-19T08:01:50;47073.47;;;-142.92;96.22
56456;BME280;42354;53.218;6.564;2022-12-19T08:04:16;47096.03;;;-142.92;96.54
56456;BME280;42354;53.218;6.564;2022-12-19T08:06:41;47073.47;;;-142.92;96.49
56456;BME280;42354;53.218;6.564;2022-12-19T08:09:07;47083.72;;;-142.92;96.21
56456;BME280;42354;53.218;6.564;2022-12-19T08:11:32;47073.47;;;-142.92;96.21
56456;BME280;42354;53.218;6.564;2022-12-19T08:13:58;47089.88;;;-142.92;96.53
56456;BME280;42354;53.218;6.564;2022-12-19T08:16:25;47081.69;;;-142.92;96.59
56456;BME280;42354;53.218;6.564;2022-12-19T08:18:51;47096.03;;;-142.92;96.69
56456;BME280;42354;53.218;6.564;2022-12-19T08:21:16;47106.31;;;-142.92;96.77
56456;BME280;42354;53.218;6.564;2022-12-19T08:23:41;47106.31;;;-142.92;96.81
56456;BME280;42354;53.218;6.564;2022-12-19T08:26:11;47100.16;;;-142.92;96.78
56456;BME280;42354;53.218;6.564;2022-12-19T08:28:36;47098.09;;;-142.92;97.05
56456;BME280;42354;53.218;6.564;2022-12-19T08:31:07;47091.94;;;-142.92;96.84
56456;BME280;42354;53.218;6.564;2022-12-19T08:33:33;47094.00;;;-142.92;97.08
56456;BME280;42354;53.218;6.564;2022-12-19T08:36:03;47089.88;;;-142.92;96.88
56456;BME280;42354;53.218;6.564;2022-12-19T08:38:29;47094.00;;;-142.92;96.96
56456;BME280;42354;53.218;6.564;2022-12-19T08:40:54;47110.41;;;-142.92;97.04
56456;BME280;42354;53.218;6.564;2022-12-19T08:43:20;47089.88;;;-142.92;97.15
56456;BME280;42354;53.218;6.564;2022-12-19T08:45:48;47094.00;;;-142.92;97.27
56456;BME280;42354;53.218;6.564;2022-12-19T08:48:15;47118.63;;;-142.92;97.18
56456;BME280;42354;53.218;6.564;2022-12-19T08:50:58;47106.31;;;-142.92;97.03
56456;BME280;42354;53.218;6.564;2022-12-19T08:53:25;47120.66;;;-142.92;97.21
56456;BME280;42354;53.218;6.564;2022-12-19T08:55:59;47098.09;;;-142.92;97.24
56456;BME280;42354;53.218;6.564;2022-12-19T08:58:26;47106.31;;;-142.92;97.30
56456;BME280;42354;53.218;6.564;2022-12-19T09:00:52;47116.56;;;-142.92;97.38
56456;BME280;42354;53.218;6.564;2022-12-19T09:03:18;47110.41;;;-142.92;97.36
56456;BME280;42354;53.218;6.564;2022-12-19T09:05:44;47108.34;;;-142.92;97.36
56456;BME280;42354;53.218;6.564;2022-12-19T09:08:09;47091.94;;;-142.92;97.44
56456;BME280;42354;53.218;6.564;2022-12-19T09:10:36;47118.63;;;-142.92;97.68
56456;BME280;42354;53.218;6.564;2022-12-19T09:13:02;47122.72;;;-142.92;97.56
56456;BME280;42354;53.218;6.564;2022-12-19T09:15:27;47098.09;;;-142.92;97.56
56456;BME280;42354;53.218;6.564;2022-12-19T09:17:54;47130.94;;;-142.92;97.73
56456;BME280;42354;53.218;6.564;2022-12-19T09:20:20;47130.94;;;-142.92;97.70
56456;BME280;42354;53.218;6.564;2022-12-19T09:22:46;47124.78;;;-142.92;97.62
56456;BME280;42354;53.218;6.564;2022-12-19T09:25:11;47102.19;;;-142.92;97.64
56456;BME280;42354;53.218;6.564;2022-12-19T09:27:36;47114.50;;;-142.92;97.69
56456;BME280;42354;53.218;6.564;2022-12-19T09:30:02;47106.31;;;-142.92;97.78
56456;BME280;42354;53.218;6.564;2022-12-19T09:32:28;47118.63;;;-142.92;97.62
56456;BME280;42354;53.218;6.564;2022-12-19T09:34:54;47110.41;;;-142.92;97.72
56456;BME280;42354;53.218;6.564;2022-12-19T09:37:19;47116.56;;;-142.92;97.71
56456;BME280;42354;53.218;6.564;2022-12-19T09:39:46;47128.88;;;-142.92;97.80
56456;BME280;42354;53.218;6.564;2022-12-19T09:42:29;47104.25;;;-142.92;97.71
56456;BME280;42354;53.218;6.564;2022-12-19T09:47:28;47124.78;;;-142.92;97.79
56456;BME280;42354;53.218;6.564;2022-12-19T09:49:56;47122.72;;;-142.92;97.70
56456;BME280;42354;53.218;6.564;2022-12-19T09:52:30;47122.72;;;-142.92;97.69
56456;BME280;42354;53.218;6.564;2022-12-19T09:55:18;47118.63;;;-142.92;97.54
56456;BME280;42354;53.218;6.564;2022-12-19T09:58:07;47110.41;;;-142.92;97.65
56456;BME280;42354;53.218;6.564;2022-12-19T10:00:48;47126.81;;;-142.92;97.85
56456;BME280;42354;53.218;6.564;2022-12-19T10:03:37;47130.94;;;-142.92;97.61
56456;BME280;42354;53.218;6.564;2022-12-19T10:08:40;47126.81;;;-142.92;97.87
56456;BME280;42354;53.218;6.564;2022-12-19T10:14:15;47130.94;;;-142.92;97.92
56456;BME280;42354;53.218;6.564;2022-12-19T10:26:12;47126.81;;;-142.92;97.81
56456;BME280;42354;53.218;6.564;2022-12-19T10:31:16;47114.50;;;-142.92;98.05
56456;BME280;42354;53.218;6.564;2022-12-19T10:36:23;47130.94;;;-142.92;98.10
56456;BME280;42354;53.218;6.564;2022-12-19T10:39:04;47132.97;;;-142.92;97.95
56456;BME280;42354;53.218;6.564;2022-12-19T10:41:34;47143.25;;;-142.92;97.76
56456;BME280;42354;53.218;6.564;2022-12-19T10:44:05;47137.09;;;-142.92;97.85
56456;BME280;42354;53.218;6.564;2022-12-19T10:46:43;47124.78;;;-142.92;97.90
56456;BME280;42354;53.218;6.564;2022-12-19T10:49:14;47151.44;;;-142.92;97.86
56456;BME280;42354;53.218;6.564;2022-12-19T10:51:42;47128.88;;;-142.92;97.76
56456;BME280;42354;53.218;6.564;2022-12-19T10:54:16;47135.03;;;-142.92;97.81
56456;BME280;42354;53.218;6.564;2022-12-19T10:56:42;47141.19;;;-142.92;97.81
56456;BME280;42354;53.218;6.564;2022-12-19T10:59:15;47126.81;;;-142.92;97.40
56456;BME280;42354;53.218;6.564;2022-12-19T11:01:42;47130.94;;;-142.92;97.67
56456;BME280;42354;53.218;6.564;2022-12-19T11:09:30;47130.94;;;-142.92;97.56
56456;BME280;42354;53.218;6.564;2022-12-19T11:12:11;47128.88;;;-142.92;97.21
56456;BME280;42354;53.218;6.564;2022-12-19T11:15:10;47132.97;;;-142.92;97.31
56456;BME280;42354;53.218;6.564;2022-12-19T11:17:39;47135.03;;;-142.92;97.55
56456;BME280;42354;53.218;6.564;2022-12-19T11:20:16;47147.34;;;-142.92;97.41
56456;BME280;42354;53.218;6.564;2022-12-19T11:22:51;47132.97;;;-142.92;97.23
56456;BME280;42354;53.218;6.564;2022-12-19T11:25:20;47135.03;;;-142.92;97.24
56456;BME280;42354;53.218;6.564;2022-12-19T11:27:47;47132.97;;;-142.92;97.21
56456;BME280;42354;53.218;6.564;2022-12-19T11:30:22;47147.34;;;-142.92;97.08
56456;BME280;42354;53.218;6.564;2022-12-19T11:33:06;47145.28;;;-142.92;97.08
56456;BME280;42354;53.218;6.564;2022-12-19T11:35:32;47130.94;;;-142.92;97.27
56456;BME280;42354;53.218;6.564;2022-12-19T11:38:10;47143.25;;;-142.92;97.40
56456;BME280;42354;53.218;6.564;2022-12-19T11:40:56;47137.09;;;-142.92;97.14
56456;BME280;42354;53.218;6.564;2022-12-19T11:46:04;47143.25;;;-142.92;97.21
56456;BME280;42354;53.218;6.564;2022-12-19T11:51:20;47151.44;;;-142.92;97.13
56456;BME280;42354;53.218;6.564;2022-12-19T11:56:28;47155.56;;;-142.92;97.17
56456;BME280;42354;53.218;6.564;2022-12-19T11:58:56;47143.25;;;-142.92;97.13
56456;BME280;42354;53.218;6.564;2022-12-19T12:07:04;47139.13;;;-142.92;97.05
56456;BME280;42354;53.218;6.564;2022-12-19T12:09:37;47155.56;;;-142.92;96.94
56456;BME280;42354;53.218;6.564;2022-12-19T12:12:30;47130.94;;;-142.92;96.78
56456;BME280;42354;53.218;6.564;2022-12-19T12:15:23;47143.25;;;-142.92;96.74
56456;BME280;42354;53.218;6.564;2022-12-19T12:26:32;47149.41;;;-142.92;96.63
56456;BME280;42354;53.218;6.564;2022-12-19T12:29:22;47128.88;;;-142.92;96.52
56456;BME280;42354;53.218;6.564;2022-12-19T12:31:52;47139.13;;;-142.92;96.60
56456;BME280;42354;53.218;6.564;2022-12-19T12:34:30;47143.25;;;-142.92;96.59
56456;BME280;42354;53.218;6.564;2022-12-19T12:42:57;47139.13;;;-142.92;96.74
56456;BME280;42354;53.218;6.564;2022-12-19T12:45:38;47135.03;;;-142.92;97.07
56456;BME280;42354;53.218;6.564;2022-12-19T12:50:40;47149.41;;;-142.92;97.22
56456;BME280;42354;53.218;6.564;2022-12-19T12:53:08;47147.34;;;-142.92;97.11
56456;BME280;42354;53.218;6.564;2022-12-19T12:55:38;47145.28;;;-142.92;97.02
56456;BME280;42354;53.218;6.564;2022-12-19T13:03:51;47145.28;;;-142.92;96.70
56456;BME280;42354;53.218;6.564;2022-12-19T13:09:19;47143.25;;;-142.92;96.44
56456;BME280;42354;53.218;6.564;2022-12-19T13:12:01;47149.41;;;-142.92;96.07
56456;BME280;42354;53.218;6.564;2022-12-19T13:14:50;47143.25;;;-142.92;96.30
56456;BME280;42354;53.218;6.564;2022-12-19T13:22:44;47139.13;;;-142.92;95.95
56456;BME280;42354;53.218;6.564;2022-12-19T13:30:31;47137.09;;;-142.92;95.68
56456;BME280;42354;53.218;6.564;2022-12-19T13:38:22;47145.28;;;-142.92;95.80
56456;BME280;42354;53.218;6.564;2022-12-19T13:40:58;47139.13;;;-142.92;95.64
56456;BME280;42354;53.218;6.564;2022-12-19T13:43:34;47139.13;;;-142.92;95.68
56456;BME280;42354;53.218;6.564;2022-12-19T13:46:29;47130.94;;;-142.92;95.82
56456;BME280;42354;53.218;6.564;2022-12-19T13:49:04;47135.03;;;-142.92;96.18
56456;BME280;42354;53.218;6.564;2022-12-19T13:51:40;47124.78;;;-142.92;96.13
56456;BME280;42354;53.218;6.564;2022-12-19T13:54:17;47126.81;;;-142.92;96.00
56456;BME280;42354;53.218;6.564;2022-12-19T13:56:43;47149.41;;;-142.92;96.45
56456;BME280;42354;53.218;6.564;2022-12-19T13:59:08;47132.97;;;-142.92;96.26
56456;BME280;42354;53.218;6.564;2022-12-19T14:01:35;47149.41;;;-142.92;96.50
56456;BME280;42354;53.218;6.564;2022-12-19T14:04:08;47153.50;;;-142.92;96.58
56456;BME280;42354;53.218;6.564;2022-12-19T14:06:42;47143.25;;;-142.92;96.73
56456;BME280;42354;53.218;6.564;2022-12-19T14:09:26;47139.13;;;-142.92;96.83
56456;BME280;42354;53.218;6.564;2022-12-19T14:11:54;47151.44;;;-142.92;97.20
56456;BME280;42354;53.218;6.564;2022-12-19T14:14:21;47155.56;;;-142.92;97.22
56456;BME280;42354;53.218;6.564;2022-12-19T14:17:11;47143.25;;;-142.92;97.53
56456;BME280;42354;53.218;6.564;2022-12-19T14:19:40;47147.34;;;-142.92;97.60
56456;BME280;42354;53.218;6.564;2022-12-19T14:24:58;47157.59;;;-142.92;97.49
56456;BME280;42354;53.218;6.564;2022-12-19T14:27:37;47137.09;;;-142.92;97.40
56456;BME280;42354;53.218;6.564;2022-12-19T14:30:06;47155.56;;;-142.92;97.46
56456;BME280;42354;53.218;6.564;2022-12-19T14:32:33;47151.44;;;-142.92;97.23
56456;BME280;42354;53.218;6.564;2022-12-19T14:35:05;47165.81;;;-142.92;97.15
56456;BME280;42354;53.218;6.564;2022-12-19T14:37:33;47147.34;;;-142.92;97.09
56456;BME280;42354;53.218;6.564;2022-12-19T14:40:27;47137.09;;;-142.92;97.12
56456;BME280;42354;53.218;6.564;2022-12-19T14:43:08;47145.28;;;-142.92;96.97
56456;BME280;42354;53.218;6.564;2022-12-19T14:46:24;47155.56;;;-142.92;96.77
56456;BME280;42354;53.218;6.564;2022-12-19T14:48:56;47143.25;;;-142.92;96.81
56456;BME280;42354;53.218;6.564;2022-12-19T14:51:32;47135.03;;;-142.92;96.80
56456;BME280;42354;53.218;6.564;2022-12-19T14:57:03;47137.09;;;-142.92;96.03
56456;BME280;42354;53.218;6.564;2022-12-19T14:59:42;47155.56;;;-142.92;96.04
56456;BME280;42354;53.218;6.564;2022-12-19T15:02:14;47137.09;;;-142.92;95.71